Taylor Fork

This weather station provides wind speed, gust or max wind speed, and wind direction at 9460 ft. near Pika Point above Sunlight Basin.  

This data can be used with temperature and precipitation data from the Carrot Basin SNOTEL site. If the data below is not displayed or up to date, view data here.

This weather station was purchased by the Friends of the Avalanche Center.

Elevation
9460ft
Jump to table bottom
Date Time Temperature
deg F
RH, % Wind Speed Wind Gust Wind Direction
01/21/20 21:00 18.5 94 20 31 S - 197
01/21/20 20:00 18.6 94 19 31 S - 192
01/21/20 19:00 18.2 94 18 26 S - 185
01/21/20 18:00 18.1 94 16 26 S - 175
01/21/20 17:00 18.2 94 14 23 S - 159
01/21/20 16:00 18.5 94 17 23 S - 168
01/21/20 15:00 19.5 91 15 22 S - 163
01/21/20 14:00 19.6 93 16 26 S - 159
01/21/20 13:00 19.3 93 19 28 S - 167
01/21/20 12:00 18.9 91 16 28 S - 163
01/21/20 11:00 19.3 90 14 22 S - 183
01/21/20 10:00 18.6 92 18 27 S - 185
01/21/20 09:00 18.2 89 17 26 S - 183
01/21/20 08:00 18.5 86 16 23 S - 164
01/21/20 07:00 18.7 88 18 23 S - 170
01/21/20 06:00 20.2 91 17 26 S - 180
01/21/20 05:00 19.8 94 13 21 SE - 157
01/21/20 04:00 21.5 93 11 22 SW - 213
01/21/20 03:00 22.1 94 14 26 SW - 206
01/21/20 02:00 21.4 94 15 29 SW - 212
01/21/20 01:00 21.1 94 15 24 S - 192
01/21/20 00:00 21.9 95 14 24 SW - 212
01/20/20 23:00 20.5 94 17 24 S - 198
01/20/20 22:00 20.6 93 18 26 S - 190
01/20/20 21:00 20.5 93 18 25 S - 178
01/20/20 20:00 19.1 87 18 29 S - 187
01/20/20 19:00 22.2 63 17 25 S - 198
01/20/20 18:00 22.9 55 18 26 S - 197
01/20/20 17:00 22.1 60 18 24 S - 168
01/20/20 16:00 22.0 64 17 23 S - 168
01/20/20 15:00 24.6 61 15 22 S - 171
01/20/20 14:00 25.1 60 15 23 S - 191
01/20/20 13:00 25.3 57 16 23 S - 185
01/20/20 12:00 24.7 61 19 26 S - 167
01/20/20 11:00 23.8 55 18 25 SE - 154
01/20/20 10:00 22.5 54 17 23 SE - 153
01/20/20 09:00 21.0 54 17 24 S - 163
01/20/20 08:00 20.9 50 15 19 S - 185
01/20/20 07:00 21.5 50 21 24 S - 171
01/20/20 06:00 19.4 58 16 22 S - 187
01/20/20 05:00 21.2 55 16 22 S - 185
01/20/20 04:00 20.7 58 14 19 S - 185
01/20/20 03:00 21.4 55 15 18 S - 181
01/20/20 02:00 22.0 54 14 18 S - 174
01/20/20 01:00 24.0 50 14 17 S - 187
01/20/20 00:00 22.3 55 16 20 S - 168
01/19/20 23:00 21.2 58 17 21 S - 167
01/19/20 22:00 20.2 62 16 19 S - 174
01/19/20 21:00 19.8 64 15 18 S - 167
01/19/20 20:00 17.5 74 15 18 S - 181